createdAt,value
2022-10-21T00:01:26.874Z,10.20
2022-10-21T00:03:53.989Z,10.00
2022-10-21T00:06:20.998Z,10.40
2022-10-21T00:08:48.137Z,9.90
2022-10-21T00:11:15.232Z,9.90
2022-10-21T00:13:42.708Z,9.60
2022-10-21T00:16:13.588Z,9.60
2022-10-21T00:18:42.268Z,10.20
2022-10-21T00:21:11.007Z,9.20
2022-10-21T00:23:38.408Z,10.10
2022-10-21T00:26:05.450Z,10.60
2022-10-21T00:28:32.882Z,10.70
2022-10-21T00:31:00.171Z,11.00
2022-10-21T00:33:29.238Z,10.60
2022-10-21T00:35:57.678Z,10.90
2022-10-21T00:38:25.145Z,10.70
2022-10-21T00:40:52.389Z,10.00
2022-10-21T00:43:19.437Z,11.10
2022-10-21T00:45:48.631Z,10.20
2022-10-21T00:48:22.080Z,10.60
2022-10-21T00:50:56.010Z,11.60
2022-10-21T00:53:24.136Z,12.70
2022-10-21T00:55:56.669Z,11.80
2022-10-21T00:58:27.552Z,12.60
2022-10-21T01:00:59.227Z,12.30
2022-10-21T01:03:27.855Z,13.00
2022-10-21T01:05:57.788Z,13.80
2022-10-21T01:08:25.876Z,13.40
2022-10-21T01:10:53.376Z,13.70
2022-10-21T01:13:27.251Z,14.20
2022-10-21T01:16:03.531Z,14.90
2022-10-21T01:18:37.978Z,15.30
2022-10-21T01:21:31.372Z,13.90
2022-10-21T01:24:34.427Z,14.80
2022-10-21T01:27:14.402Z,15.60
2022-10-21T01:30:06.254Z,14.80
2022-10-21T01:32:47.537Z,15.90
2022-10-21T01:35:20.786Z,16.50
2022-10-21T01:37:57.332Z,16.20
2022-10-21T01:40:28.126Z,17.70
2022-10-21T01:42:58.022Z,15.70
2022-10-21T01:45:32.859Z,15.50
2022-10-21T01:48:04.013Z,15.00
2022-10-21T01:50:35.298Z,15.80
2022-10-21T01:53:06.483Z,15.40
2022-10-21T01:55:34.399Z,14.80
2022-10-21T01:58:04.084Z,14.80
2022-10-21T02:00:32.634Z,15.40
2022-10-21T02:03:02.006Z,16.30
2022-10-21T02:05:33.345Z,16.10
2022-10-21T02:08:00.669Z,15.50
2022-10-21T02:10:31.325Z,15.30
2022-10-21T02:13:01.737Z,16.20
2022-10-21T02:15:30.260Z,15.50
2022-10-21T02:18:04.502Z,14.90
2022-10-21T02:20:36.200Z,14.70
2022-10-21T02:23:04.149Z,14.20
2022-10-21T02:25:37.336Z,14.70
2022-10-21T02:28:05.544Z,15.80
2022-10-21T02:30:53.099Z,14.00
2022-10-21T02:33:28.233Z,15.00
2022-10-21T02:36:05.166Z,14.20
2022-10-21T02:41:05.985Z,13.20
2022-10-21T02:43:36.767Z,13.60
2022-10-21T02:46:08.523Z,12.80
2022-10-21T02:48:38.316Z,13.50
2022-10-21T02:51:06.569Z,13.90
2022-10-21T02:53:33.889Z,14.10
2022-10-21T02:56:01.754Z,12.80
2022-10-21T02:58:29.377Z,14.80
2022-10-21T03:00:56.918Z,13.00
2022-10-21T03:03:24.270Z,13.90
2022-10-21T03:05:51.804Z,13.40
2022-10-21T03:08:19.334Z,12.90
2022-10-21T03:10:52.933Z,13.50
2022-10-21T03:13:20.715Z,13.20
2022-10-21T03:15:47.808Z,13.30
2022-10-21T03:18:14.863Z,12.80
2022-10-21T03:20:42.213Z,12.50
2022-10-21T03:23:09.307Z,12.90
2022-10-21T03:25:36.435Z,12.90
2022-10-21T03:28:03.909Z,12.80
2022-10-21T03:30:30.918Z,13.60
2022-10-21T03:32:57.999Z,12.80
2022-10-21T03:35:25.351Z,13.90
2022-10-21T03:37:52.439Z,13.20
2022-10-21T03:40:19.920Z,13.50
2022-10-21T03:42:46.914Z,12.80
2022-10-21T03:45:14.364Z,13.00
2022-10-21T03:47:41.402Z,12.90
2022-10-21T03:50:13.899Z,13.20
2022-10-21T03:52:43.604Z,12.60
2022-10-21T03:55:11.366Z,12.90
2022-10-21T03:57:38.951Z,13.70
2022-10-21T04:00:08.589Z,13.80
2022-10-21T04:02:39.987Z,13.80
2022-10-21T04:05:08.578Z,13.20
2022-10-21T04:07:35.681Z,14.20
2022-10-21T04:10:02.736Z,14.20
2022-10-21T04:12:29.796Z,14.00
2022-10-21T04:14:57.005Z,14.70
2022-10-21T04:17:24.022Z,14.00
2022-10-21T04:19:50.943Z,14.20
2022-10-21T04:22:18.143Z,15.20
2022-10-21T04:24:45.239Z,13.60
2022-10-21T04:27:12.638Z,14.20
2022-10-21T04:29:40.080Z,13.80
2022-10-21T04:32:07.289Z,15.10
2022-10-21T04:34:34.293Z,14.10
2022-10-21T04:37:05.071Z,15.50
2022-10-21T04:39:32.998Z,14.50
2022-10-21T04:42:00.327Z,14.30
2022-10-21T04:44:28.157Z,13.20
2022-10-21T04:46:55.385Z,14.70
2022-10-21T04:49:22.694Z,14.30
2022-10-21T04:51:49.849Z,14.20
2022-10-21T04:54:16.933Z,15.10
2022-10-21T04:56:44.081Z,15.50
2022-10-21T04:59:11.421Z,15.40
2022-10-21T05:01:38.683Z,15.30
2022-10-21T05:04:05.775Z,15.00
2022-10-21T05:06:33.118Z,14.50
2022-10-21T05:09:00.558Z,13.90
2022-10-21T05:11:27.658Z,14.50
2022-10-21T05:13:54.817Z,13.30
2022-10-21T05:16:23.972Z,13.50
2022-10-21T05:18:51.576Z,13.40
2022-10-21T05:21:18.602Z,14.30
2022-10-21T05:23:45.658Z,13.30
2022-10-21T05:26:12.764Z,12.70
2022-10-21T05:28:40.027Z,13.50
2022-10-21T05:31:07.182Z,13.60
2022-10-21T05:33:34.422Z,12.90
2022-10-21T05:36:05.123Z,13.60
2022-10-21T05:38:32.504Z,12.90
2022-10-21T05:41:00.514Z,13.80
2022-10-21T05:43:28.387Z,14.20
2022-10-21T05:45:55.894Z,12.40
2022-10-21T05:48:23.136Z,12.60
2022-10-21T05:50:52.803Z,13.50
2022-10-21T05:53:20.052Z,12.20
2022-10-21T05:55:47.552Z,12.70
2022-10-21T05:58:14.629Z,12.80
2022-10-21T06:00:42.113Z,12.20
2022-10-21T06:03:09.801Z,12.30
2022-10-21T06:05:38.268Z,11.50
2022-10-21T06:08:05.644Z,11.90
2022-10-21T06:10:32.623Z,12.00
2022-10-21T06:13:00.310Z,12.20
2022-10-21T06:15:27.353Z,12.70
2022-10-21T06:17:55.501Z,12.20
2022-10-21T06:20:22.862Z,11.90
2022-10-21T06:22:49.893Z,12.00
2022-10-21T06:27:49.682Z,12.60
2022-10-21T06:30:16.875Z,12.30
2022-10-21T06:32:43.971Z,11.90
2022-10-21T06:35:11.469Z,11.90
2022-10-21T06:37:38.908Z,12.40
2022-10-21T06:40:07.633Z,12.30
2022-10-21T06:42:34.724Z,12.40
2022-10-21T06:45:01.786Z,12.40
2022-10-21T06:47:28.884Z,12.40
2022-10-21T06:49:55.969Z,12.00
2022-10-21T06:52:23.163Z,11.50
2022-10-21T06:54:51.249Z,11.40
2022-10-21T06:57:18.249Z,11.90
2022-10-21T06:59:45.281Z,11.70
2022-10-21T07:02:13.229Z,11.30
2022-10-21T07:04:56.524Z,11.60
2022-10-21T07:07:23.851Z,11.80
2022-10-21T07:09:51.070Z,12.20
2022-10-21T07:12:18.244Z,11.90
2022-10-21T07:14:45.520Z,11.70
2022-10-21T07:17:29.763Z,11.90
2022-10-21T07:19:57.357Z,12.10
2022-10-21T07:22:24.453Z,12.60
2022-10-21T07:24:51.723Z,12.30
2022-10-21T07:27:18.916Z,12.60
2022-10-21T07:29:46.189Z,12.40
2022-10-21T07:32:13.290Z,12.00
2022-10-21T07:34:40.416Z,11.80
2022-10-21T07:37:07.548Z,12.20
2022-10-21T07:39:35.227Z,12.40
2022-10-21T07:42:02.413Z,11.90
2022-10-21T07:44:29.638Z,13.20
2022-10-21T07:46:57.092Z,12.10
2022-10-21T07:49:25.459Z,11.90
2022-10-21T07:51:53.957Z,12.50
2022-10-21T07:54:21.619Z,12.20
2022-10-21T07:56:51.527Z,13.50
2022-10-21T07:59:20.247Z,12.60
2022-10-21T08:04:22.561Z,12.60
2022-10-21T08:06:50.875Z,13.00
2022-10-21T08:09:18.845Z,12.80
2022-10-21T08:11:46.000Z,12.20
2022-10-21T08:14:13.857Z,12.50
2022-10-21T08:16:41.315Z,12.40
2022-10-21T08:19:09.185Z,12.40
2022-10-21T08:21:37.523Z,12.50
2022-10-21T08:24:06.243Z,12.60
2022-10-21T08:26:33.867Z,12.10
2022-10-21T08:29:01.143Z,12.30
2022-10-21T08:31:28.160Z,12.20
2022-10-21T08:33:55.481Z,12.40
2022-10-21T08:36:25.089Z,12.80
2022-10-21T08:38:53.190Z,12.80
2022-10-21T08:41:37.384Z,12.40
2022-10-21T08:44:08.549Z,12.00
2022-10-21T08:46:41.133Z,11.50
2022-10-21T08:49:14.688Z,11.70
2022-10-21T08:51:47.478Z,12.80
2022-10-21T08:54:23.476Z,12.30
2022-10-21T08:56:56.499Z,13.20
2022-10-21T08:59:25.366Z,12.70
2022-10-21T09:02:02.582Z,12.90
2022-10-21T09:04:38.156Z,12.10
2022-10-21T09:07:13.313Z,13.10
2022-10-21T09:09:47.317Z,11.60
2022-10-21T09:12:21.537Z,11.70
2022-10-21T09:15:11.225Z,11.50
2022-10-21T09:17:57.698Z,10.80
2022-10-21T09:20:39.200Z,12.20
2022-10-21T09:23:30.172Z,11.90
2022-10-21T09:26:01.666Z,11.60
2022-10-21T09:28:30.264Z,11.50
2022-10-21T09:30:58.955Z,11.30
2022-10-21T09:33:29.969Z,11.70
2022-10-21T09:36:04.809Z,11.60
2022-10-21T09:38:41.280Z,10.20
2022-10-21T09:41:15.749Z,11.30
2022-10-21T09:43:42.902Z,11.00
2022-10-21T09:46:14.507Z,11.10
2022-10-21T09:49:16.219Z,10.30
2022-10-21T09:51:40.260Z,10.90
2022-10-21T09:54:12.816Z,10.90
2022-10-21T09:56:45.049Z,9.70
2022-10-21T09:59:14.289Z,10.60
2022-10-21T10:01:44.743Z,10.10
2022-10-21T10:04:23.292Z,11.20
2022-10-21T10:06:50.879Z,10.30
2022-10-21T10:09:27.132Z,9.90
2022-10-21T10:11:57.509Z,10.50
2022-10-21T10:14:31.217Z,10.10
2022-10-21T10:16:59.714Z,11.00
2022-10-21T10:19:28.836Z,10.30
2022-10-21T10:22:15.264Z,11.50
2022-10-21T10:24:43.656Z,9.90
2022-10-21T10:27:19.212Z,9.70
2022-10-21T10:29:53.851Z,10.10
2022-10-21T10:32:24.261Z,10.00
2022-10-21T10:34:58.835Z,9.20
2022-10-21T10:37:29.155Z,8.90
2022-10-21T10:39:59.235Z,9.40
2022-10-21T10:42:29.354Z,8.90
2022-10-21T10:45:00.478Z,9.40
2022-10-21T10:47:32.871Z,10.10
2022-10-21T10:50:00.139Z,10.30
2022-10-21T10:52:27.879Z,9.50
2022-10-21T10:55:19.199Z,9.00
2022-10-21T10:58:05.913Z,9.20
2022-10-21T11:00:44.157Z,9.50
2022-10-21T11:03:15.970Z,8.30
2022-10-21T11:05:46.202Z,8.80
2022-10-21T11:08:19.337Z,9.20
2022-10-21T11:10:50.161Z,9.30
2022-10-21T11:13:19.376Z,8.90
2022-10-21T11:16:11.549Z,8.70
2022-10-21T11:18:49.359Z,8.60
2022-10-21T11:21:34.222Z,8.70
2022-10-21T11:24:29.946Z,8.70
2022-10-21T11:27:04.490Z,9.80
2022-10-21T11:29:47.658Z,9.70
2022-10-21T11:32:27.763Z,9.60
2022-10-21T11:35:07.052Z,9.50
2022-10-21T11:37:49.289Z,9.30
2022-10-21T11:40:27.697Z,9.60
2022-10-21T11:42:57.762Z,9.20
2022-10-21T11:45:39.171Z,9.50
2022-10-21T11:48:18.353Z,9.80
2022-10-21T11:50:54.686Z,9.20
2022-10-21T11:53:37.800Z,9.50
2022-10-21T11:56:16.391Z,10.20
2022-10-21T11:58:56.867Z,9.50
2022-10-21T12:01:38.626Z,9.50
2022-10-21T12:04:24.534Z,9.20
2022-10-21T12:06:59.611Z,9.70
2022-10-21T12:09:32.021Z,9.60
2022-10-21T12:12:05.901Z,10.50
2022-10-21T12:14:38.019Z,9.50
2022-10-21T12:17:11.837Z,9.80
2022-10-21T12:19:39.575Z,10.30
2022-10-21T12:22:08.708Z,9.70
2022-10-21T12:24:47.698Z,10.30
2022-10-21T12:27:26.714Z,10.60
2022-10-21T12:30:07.009Z,10.00
2022-10-21T12:32:41.979Z,9.70
2022-10-21T12:35:16.111Z,11.40
2022-10-21T12:38:04.573Z,10.70
2022-10-21T12:40:43.786Z,9.80
2022-10-21T12:43:22.559Z,10.50
2022-10-21T12:46:02.399Z,9.70
2022-10-21T12:48:36.793Z,9.00
2022-10-21T12:51:06.934Z,9.40
2022-10-21T12:53:40.035Z,10.10
2022-10-21T12:56:08.831Z,10.30
2022-10-21T12:58:41.427Z,9.30
2022-10-21T13:01:25.817Z,9.60
2022-10-21T13:03:57.789Z,10.00
2022-10-21T13:06:58.133Z,9.50
2022-10-21T13:09:37.475Z,9.40
2022-10-21T13:12:18.683Z,9.30
2022-10-21T13:14:49.368Z,9.50
2022-10-21T13:17:50.232Z,9.80
2022-10-21T13:20:47.564Z,9.60
2022-10-21T13:23:32.541Z,9.40
2022-10-21T13:26:13.948Z,9.00
2022-10-21T13:28:41.266Z,8.40
2022-10-21T13:31:08.876Z,8.70
2022-10-21T13:33:38.619Z,8.50
2022-10-21T13:36:10.297Z,8.30
2022-10-21T13:38:39.405Z,8.80
2022-10-21T13:41:19.791Z,8.70
2022-10-21T13:43:52.752Z,9.00
2022-10-21T13:46:24.503Z,9.20
2022-10-21T13:48:52.185Z,9.00
2022-10-21T13:51:22.722Z,9.00
2022-10-21T13:53:54.183Z,8.80
2022-10-21T13:56:26.399Z,8.50
2022-10-21T13:58:54.099Z,8.70
2022-10-21T14:01:25.623Z,8.60
2022-10-21T14:03:53.774Z,8.30
2022-10-21T14:06:30.964Z,8.60
2022-10-21T14:08:58.864Z,8.30
2022-10-21T14:11:34.797Z,8.40
2022-10-21T14:14:09.829Z,8.00
2022-10-21T14:16:40.695Z,7.80
2022-10-21T14:19:12.415Z,7.30
2022-10-21T14:21:43.902Z,8.50
2022-10-21T14:24:26.120Z,8.80
2022-10-21T14:26:53.941Z,8.10
2022-10-21T14:29:21.709Z,8.90
2022-10-21T14:31:48.996Z,8.50
2022-10-21T14:34:24.878Z,8.50
2022-10-21T14:37:19.622Z,9.60
2022-10-21T14:39:46.837Z,9.10
2022-10-21T14:42:20.739Z,8.90
2022-10-21T14:44:49.886Z,7.90
2022-10-21T14:47:23.480Z,8.30
2022-10-21T14:49:52.843Z,8.20
2022-10-21T14:52:24.378Z,8.20
2022-10-21T14:54:56.028Z,8.20
2022-10-21T14:57:34.198Z,8.20
2022-10-21T15:00:15.632Z,8.60
2022-10-21T15:02:43.065Z,7.90
2022-10-21T15:05:31.781Z,9.10
2022-10-21T15:08:25.991Z,7.40
2022-10-21T15:11:25.644Z,8.30
2022-10-21T15:14:32.118Z,8.50
2022-10-21T15:17:01.463Z,9.40
2022-10-21T15:19:33.193Z,8.20
2022-10-21T15:22:02.715Z,7.70
2022-10-21T15:24:37.351Z,8.30
2022-10-21T15:27:05.924Z,7.90
2022-10-21T15:29:43.579Z,8.40
2022-10-21T15:32:13.759Z,8.40
2022-10-21T15:34:40.876Z,8.40
2022-10-21T15:37:08.533Z,8.20
2022-10-21T15:39:35.775Z,9.30
2022-10-21T15:42:03.619Z,8.60
2022-10-21T15:44:32.539Z,9.50
2022-10-21T15:47:02.797Z,9.30
2022-10-21T15:49:32.826Z,8.70
2022-10-21T15:51:59.996Z,8.70
2022-10-21T15:54:27.109Z,8.70
2022-10-21T15:56:55.681Z,9.30
2022-10-21T15:59:24.610Z,9.20
2022-10-21T16:01:52.611Z,9.50
2022-10-21T16:04:20.284Z,10.10
2022-10-21T16:06:49.089Z,9.40
2022-10-21T16:09:20.513Z,10.30
2022-10-21T16:11:59.059Z,9.50
2022-10-21T16:14:29.529Z,9.60
2022-10-21T16:17:01.042Z,9.50
2022-10-21T16:19:28.863Z,9.10
2022-10-21T16:21:56.404Z,9.70
2022-10-21T16:24:23.634Z,10.20
2022-10-21T16:26:51.953Z,10.30
2022-10-21T16:29:21.731Z,11.00
2022-10-21T16:31:49.045Z,10.60
2022-10-21T16:34:16.269Z,10.40
2022-10-21T16:36:43.465Z,11.10
2022-10-21T16:39:14.701Z,10.90
2022-10-21T16:41:42.302Z,11.80
2022-10-21T16:44:09.702Z,11.20
2022-10-21T16:46:40.072Z,11.70
2022-10-21T16:49:13.054Z,11.80
2022-10-21T16:51:40.635Z,11.50
2022-10-21T16:54:07.991Z,12.10
2022-10-21T16:56:35.115Z,11.90
2022-10-21T16:59:02.131Z,11.20
2022-10-21T17:01:29.650Z,12.10
2022-10-21T17:03:56.885Z,12.30
2022-10-21T17:06:26.301Z,12.50
2022-10-21T17:08:54.946Z,11.60
2022-10-21T17:11:23.838Z,12.00
2022-10-21T17:13:51.623Z,11.50
2022-10-21T17:16:20.272Z,12.20
2022-10-21T17:18:47.823Z,12.70
2022-10-21T17:21:21.714Z,12.40
2022-10-21T17:23:50.099Z,12.60
2022-10-21T17:26:18.407Z,12.50
2022-10-21T17:28:45.508Z,12.80
2022-10-21T17:31:17.437Z,12.80
2022-10-21T17:33:44.728Z,13.50
2022-10-21T17:36:12.770Z,12.80
2022-10-21T17:38:41.957Z,12.80
2022-10-21T17:41:10.012Z,13.10
2022-10-21T17:43:37.236Z,12.80
2022-10-21T17:46:04.470Z,13.00
2022-10-21T17:48:31.573Z,13.00
2022-10-21T17:51:00.932Z,12.80
2022-10-21T17:53:29.022Z,13.80
2022-10-21T17:56:03.702Z,12.80
2022-10-21T17:58:31.675Z,13.40
2022-10-21T18:00:59.436Z,14.10
2022-10-21T18:03:27.263Z,13.30
2022-10-21T18:05:55.761Z,13.90
2022-10-21T18:08:23.238Z,13.70
2022-10-21T18:10:56.613Z,13.40
2022-10-21T18:13:23.774Z,12.80
2022-10-21T18:15:51.556Z,13.40
2022-10-21T18:18:18.961Z,12.70
2022-10-21T18:20:46.015Z,13.10
2022-10-21T18:23:13.648Z,13.80
2022-10-21T18:25:41.542Z,13.20
2022-10-21T18:28:11.342Z,13.80
2022-10-21T18:30:44.042Z,13.70
2022-10-21T18:33:11.415Z,13.90
2022-10-21T18:35:38.676Z,14.00
2022-10-21T18:38:06.072Z,13.50
2022-10-21T18:40:33.643Z,13.80
2022-10-21T18:43:00.662Z,13.60
2022-10-21T18:45:27.770Z,13.70
2022-10-21T18:47:55.691Z,13.20
2022-10-21T18:50:22.682Z,12.90
2022-10-21T18:52:49.767Z,14.20
2022-10-21T18:55:17.041Z,14.20
2022-10-21T18:57:44.133Z,14.20
2022-10-21T19:00:13.366Z,13.50
2022-10-21T19:02:40.480Z,14.40
2022-10-21T19:05:08.710Z,14.50
2022-10-21T19:07:35.902Z,15.00
2022-10-21T19:10:03.325Z,13.70
2022-10-21T19:12:30.364Z,14.00
2022-10-21T19:14:58.137Z,14.30
2022-10-21T19:17:25.451Z,15.00
2022-10-21T19:19:52.679Z,15.00
2022-10-21T19:22:20.197Z,16.00
2022-10-21T19:24:47.899Z,15.50
2022-10-21T19:27:14.930Z,16.20
2022-10-21T19:29:43.581Z,15.80
2022-10-21T19:32:12.969Z,15.50
2022-10-21T19:34:40.185Z,15.50
2022-10-21T19:37:09.697Z,15.30
2022-10-21T19:39:36.798Z,14.70
2022-10-21T19:42:04.576Z,15.50
2022-10-21T19:44:31.668Z,15.40
2022-10-21T19:46:58.629Z,15.50
2022-10-21T19:49:25.776Z,15.90
2022-10-21T19:51:53.487Z,15.30
2022-10-21T19:54:20.641Z,15.60
2022-10-21T19:56:47.765Z,16.00
2022-10-21T19:59:14.881Z,16.00
2022-10-21T20:01:42.630Z,15.70
2022-10-21T20:04:09.839Z,15.60
2022-10-21T20:06:38.320Z,15.50
2022-10-21T20:09:08.313Z,15.30
2022-10-21T20:11:35.574Z,16.60
2022-10-21T20:14:04.328Z,16.10
2022-10-21T20:16:33.304Z,15.40
2022-10-21T20:19:01.149Z,15.60
2022-10-21T20:21:28.900Z,15.30
2022-10-21T20:23:57.924Z,16.00
2022-10-21T20:26:25.102Z,16.20
2022-10-21T20:28:52.493Z,15.80
2022-10-21T20:31:20.078Z,16.30
2022-10-21T20:33:48.794Z,16.00
2022-10-21T20:36:18.380Z,16.30
2022-10-21T20:38:45.788Z,16.40
2022-10-21T20:41:21.649Z,16.90
2022-10-21T20:43:49.243Z,16.70
2022-10-21T20:46:17.575Z,18.40
2022-10-21T20:48:46.783Z,18.20
2022-10-21T20:51:15.629Z,16.40
2022-10-21T20:56:15.898Z,18.00
2022-10-21T20:58:44.147Z,17.00
2022-10-21T21:01:12.561Z,17.90
2022-10-21T21:03:41.908Z,18.40
2022-10-21T21:06:10.069Z,19.40
2022-10-21T21:08:44.572Z,18.00
2022-10-21T21:11:17.213Z,18.60
2022-10-21T21:13:44.963Z,18.90
2022-10-21T21:16:13.851Z,18.80
2022-10-21T21:18:42.759Z,18.20
2022-10-21T21:21:12.500Z,19.30
2022-10-21T21:23:40.866Z,19.60
2022-10-21T21:26:10.750Z,19.40
2022-10-21T21:28:39.259Z,19.20
2022-10-21T21:31:10.527Z,19.60
2022-10-21T21:33:38.116Z,19.10
2022-10-21T21:36:06.907Z,19.80
2022-10-21T21:38:35.995Z,20.60
2022-10-21T21:41:06.686Z,20.30
2022-10-21T21:43:37.076Z,19.20
2022-10-21T21:46:04.654Z,20.20
2022-10-21T21:48:33.428Z,18.60
2022-10-21T21:51:05.514Z,20.80
2022-10-21T21:53:33.049Z,20.60
2022-10-21T21:56:03.645Z,20.30
2022-10-21T21:58:31.644Z,20.50
2022-10-21T22:00:58.802Z,19.60
2022-10-21T22:03:26.227Z,20.20
2022-10-21T22:05:53.240Z,20.00
2022-10-21T22:08:20.649Z,21.00
2022-10-21T22:10:47.826Z,20.00
2022-10-21T22:13:14.837Z,20.50
2022-10-21T22:15:48.150Z,21.10
2022-10-21T22:18:16.009Z,21.10
2022-10-21T22:20:43.122Z,20.50
2022-10-21T22:23:10.233Z,21.40
2022-10-21T22:25:37.484Z,20.60
2022-10-21T22:28:04.830Z,20.80
2022-10-21T22:30:32.018Z,20.90
2022-10-21T22:32:59.015Z,20.30
2022-10-21T22:35:27.300Z,21.80
2022-10-21T22:37:54.438Z,21.20
2022-10-21T22:40:22.092Z,21.40
2022-10-21T22:42:49.243Z,21.90
2022-10-21T22:45:16.504Z,21.80
2022-10-21T22:47:43.541Z,22.90
2022-10-21T22:50:11.661Z,21.60
2022-10-21T22:52:42.459Z,22.60
2022-10-21T22:55:11.423Z,21.70
2022-10-21T22:57:38.593Z,22.50
2022-10-21T23:00:07.326Z,22.00
2022-10-21T23:02:34.364Z,21.10
2022-10-21T23:05:01.414Z,22.40
2022-10-21T23:07:28.556Z,21.30
2022-10-21T23:09:55.568Z,22.10
2022-10-21T23:12:22.723Z,22.70
2022-10-21T23:14:49.853Z,21.90
2022-10-21T23:17:16.843Z,20.80
2022-10-21T23:19:43.914Z,22.10
2022-10-21T23:22:11.634Z,22.00
2022-10-21T23:24:38.915Z,21.10
2022-10-21T23:27:06.678Z,20.90
2022-10-21T23:29:33.937Z,21.70
2022-10-21T23:32:00.887Z,21.20
2022-10-21T23:34:28.003Z,22.10
2022-10-21T23:36:55.148Z,21.60
2022-10-21T23:39:22.590Z,22.00
2022-10-21T23:41:49.759Z,21.40
2022-10-21T23:44:16.823Z,21.00
2022-10-21T23:46:44.026Z,21.60
2022-10-21T23:49:11.149Z,21.00
2022-10-21T23:51:38.418Z,21.00
2022-10-21T23:54:05.916Z,20.90
2022-10-21T23:56:33.578Z,19.70
2022-10-21T23:59:01.809Z,20.90
